Observations for ALDERNEY CHANNEL IS, United Kingdom (EGJA)

EGJA 220720Z 23008KT 9999 -RA SCT015 13/09 Q1021
EGJA 220650Z 23008KT 9999 -RA SCT015 13/08 Q1021
EGJA 220620Z 23009KT 9999 -RA FEW015 14/09 Q1021
EGJA 220550Z 23008KT 9999 FEW015 14/09 Q1020
EGJA 211820Z 26021KT 9999 SCT030 14/08 Q1019
EGJA 211750Z 27017KT 9999 SCT030 14/08 Q1019
EGJA 211720Z 26021KT 9999 SCT032 14/08 Q1019
EGJA 211650Z 28021KT 9999 SCT032 15/09 Q1018
EGJA 211620Z 27020KT 9999 FEW032 15/08 Q1018
EGJA 211550Z 26021KT 9999 SCT032 15/08 Q1018
EGJA 211520Z 27018KT 9999 SCT032 16/07 Q1018
EGJA 211450Z 27021KT 9999 SCT032 16/07 Q1017
EGJA 211420Z 27023KT 9999 FEW032 15/08 Q1017
EGJA 211350Z 26021G31KT 9999 FEW030 16/07 Q1017 
EGJA 211320Z 27019KT 9999 FEW030 16/07 Q1017
EGJA 211250Z 26022KT 9999 SCT035 16/08 Q1016
EGJA 211220Z 27022KT 9999 SCT035 16/08 Q1016
EGJA 211150Z 27019KT 9999 SCT035 15/09 Q1016
EGJA 211120Z 28024KT 9999 SCT035 15/08 Q1015
EGJA 211050Z 27022KT 9999 SCT035 15/07 Q1015
EGJA 211020Z 28024KT 9999 SCT030 15/07 Q1015
EGJA 210950Z 28021KT 9999 SCT030 14/06 Q1014
EGJA 210920Z 27020G30KT 9999 SCT030 14/07 Q1014 
EGJA 210850Z 27020G32KT 9999 SCT030 14/08 Q1014 
EGJA 210820Z 29019G29KT 9999 SCT030 14/07 Q1013 
EGJA 210750Z 28018G30KT 9999 SCT028 13/07 Q1012 
EGJA 210720Z 29017G27KT 9999 SCT028 13/07 Q1012 
EGJA 210650Z 29021KT 9999 SCT028 12/07 Q1011